createdAt,value
2022-08-25T00:02:55.531Z,19.97
2022-08-25T00:07:58.267Z,19.87
2022-08-25T00:12:59.855Z,19.94
2022-08-25T00:18:02.587Z,19.75
2022-08-25T00:23:04.190Z,19.57
2022-08-25T00:28:09.839Z,19.62
2022-08-25T00:33:11.615Z,19.19
2022-08-25T00:38:13.638Z,19.19
2022-08-25T00:43:15.125Z,19.31
2022-08-25T00:48:16.634Z,19.19
2022-08-25T00:53:18.092Z,19.13
2022-08-25T00:58:23.551Z,19.14
2022-08-25T01:03:33.125Z,19.09
2022-08-25T01:08:35.049Z,18.93
2022-08-25T01:13:42.610Z,19.09
2022-08-25T01:18:48.576Z,19.10
2022-08-25T01:23:51.357Z,18.78
2022-08-25T01:28:54.048Z,18.70
2022-08-25T01:33:56.593Z,18.65
2022-08-25T01:38:58.394Z,18.33
2022-08-25T01:44:01.043Z,18.56
2022-08-25T01:49:06.608Z,18.37
2022-08-25T01:54:08.513Z,18.65
2022-08-25T01:59:09.989Z,18.59
2022-08-25T02:04:11.685Z,18.22
2022-08-25T02:09:16.245Z,18.09
2022-08-25T02:14:17.981Z,18.10
2022-08-25T02:19:21.500Z,18.26
2022-08-25T02:24:23.057Z,18.15
2022-08-25T02:29:24.849Z,18.21
2022-08-25T02:34:26.594Z,18.00
2022-08-25T02:39:28.140Z,18.16
2022-08-25T02:44:29.745Z,18.12
2022-08-25T02:49:31.289Z,17.97
2022-08-25T02:54:32.846Z,17.80
2022-08-25T02:59:34.361Z,17.80
2022-08-25T03:04:35.976Z,18.06
2022-08-25T03:09:38.232Z,18.13
2022-08-25T03:14:40.868Z,17.92
2022-08-25T03:19:42.517Z,17.85
2022-08-25T03:24:44.275Z,17.52
2022-08-25T03:29:47.376Z,17.31
2022-08-25T03:34:48.914Z,17.67
2022-08-25T03:39:50.462Z,17.26
2022-08-25T03:44:52.237Z,17.39
2022-08-25T03:49:53.813Z,17.27
2022-08-25T03:54:55.287Z,17.13
2022-08-25T03:59:56.861Z,17.26
2022-08-25T04:04:58.330Z,17.45
2022-08-25T04:09:59.890Z,16.93
2022-08-25T04:15:01.660Z,16.98
2022-08-25T04:20:04.679Z,16.94
2022-08-25T04:25:06.786Z,17.25
2022-08-25T04:30:08.869Z,16.99
2022-08-25T04:35:10.342Z,17.12
2022-08-25T04:40:12.367Z,17.29
2022-08-25T04:45:13.918Z,17.18
2022-08-25T04:50:15.407Z,17.04
2022-08-25T04:55:17.035Z,17.23
2022-08-25T05:00:18.841Z,17.28
2022-08-25T05:05:20.334Z,17.24
2022-08-25T05:10:21.889Z,17.39
2022-08-25T05:15:23.731Z,17.65
2022-08-25T05:20:26.701Z,17.92
2022-08-25T05:25:28.275Z,18.69
2022-08-25T05:30:30.146Z,19.69
2022-08-25T05:35:32.042Z,20.45
2022-08-25T05:40:34.183Z,24.51
2022-08-25T05:45:37.714Z,23.93
2022-08-25T05:50:39.301Z,26.98
2022-08-25T05:55:44.760Z,30.24
2022-08-25T06:00:46.540Z,31.92
2022-08-25T06:05:48.829Z,33.06
2022-08-25T06:10:53.587Z,33.32
2022-08-25T06:15:59.885Z,34.18
2022-08-25T06:21:08.800Z,35.21
2022-08-25T06:26:20.909Z,35.36
2022-08-25T06:31:23.442Z,36.78
2022-08-25T06:36:24.979Z,38.53
2022-08-25T06:41:29.983Z,37.17
2022-08-25T06:46:38.841Z,35.75
2022-08-25T06:51:40.619Z,39.91
2022-08-25T06:56:43.182Z,40.93
2022-08-25T07:01:45.269Z,41.60
2022-08-25T07:06:47.145Z,40.58
2022-08-25T07:11:48.614Z,42.15
2022-08-25T07:16:50.542Z,41.30
2022-08-25T07:21:53.160Z,40.44
2022-08-25T07:26:54.793Z,39.33
2022-08-25T07:31:56.441Z,38.32
2022-08-25T07:36:58.510Z,41.54
2022-08-25T07:42:00.413Z,40.31
2022-08-25T07:47:03.190Z,41.88
2022-08-25T07:52:06.623Z,42.88
2022-08-25T07:57:09.089Z,45.34
2022-08-25T08:02:18.117Z,46.88
2022-08-25T08:07:41.848Z,45.47
2022-08-25T08:12:44.066Z,42.04
2022-08-25T08:17:46.241Z,44.60
2022-08-25T08:22:49.790Z,39.18
2022-08-25T08:27:51.638Z,37.52
2022-08-25T08:33:09.757Z,35.37
2022-08-25T08:38:20.873Z,33.58
2022-08-25T08:43:25.102Z,30.51
2022-08-25T08:48:43.113Z,31.59
2022-08-25T08:53:47.423Z,30.50
2022-08-25T08:58:52.766Z,31.05
2022-08-25T09:04:08.909Z,30.99
2022-08-25T09:09:14.397Z,31.40
2022-08-25T09:14:47.884Z,31.48
2022-08-25T09:20:18.712Z,31.51
2022-08-25T09:25:52.246Z,31.71
2022-08-25T09:31:00.244Z,31.40
2022-08-25T09:36:04.647Z,30.61
2022-08-25T09:41:08.796Z,31.88
2022-08-25T09:46:16.614Z,32.25
2022-08-25T09:51:42.418Z,32.15
2022-08-25T09:56:51.617Z,31.40
2022-08-25T10:02:00.325Z,30.45
2022-08-25T10:07:04.699Z,31.75
2022-08-25T10:12:19.626Z,31.83
2022-08-25T10:17:29.521Z,31.80
2022-08-25T10:22:31.627Z,31.95
2022-08-25T10:27:44.782Z,32.01
2022-08-25T10:33:01.389Z,31.80
2022-08-25T10:38:21.726Z,32.08
2022-08-25T10:44:04.941Z,32.13
2022-08-25T10:49:19.672Z,32.01
2022-08-25T10:54:57.698Z,31.82
2022-08-25T11:00:15.702Z,31.45
2022-08-25T11:05:32.052Z,31.18
2022-08-25T11:10:50.365Z,30.99
2022-08-25T11:16:17.217Z,31.09
2022-08-25T11:21:26.145Z,31.15
2022-08-25T11:26:36.605Z,31.37
2022-08-25T11:31:43.203Z,31.46
2022-08-25T11:36:59.890Z,31.11
2022-08-25T11:42:10.242Z,31.20
2022-08-25T11:47:26.358Z,31.33
2022-08-25T11:52:34.898Z,31.10
2022-08-25T11:57:37.491Z,31.00
2022-08-25T12:02:46.272Z,31.06
2022-08-25T12:07:47.746Z,30.83
2022-08-25T12:12:58.065Z,30.75
2022-08-25T12:18:19.138Z,30.77
2022-08-25T12:23:31.520Z,30.57
2022-08-25T12:28:48.133Z,30.44
2022-08-25T12:33:55.310Z,30.60
2022-08-25T12:39:24.135Z,30.18
2022-08-25T12:45:07.398Z,30.22
2022-08-25T12:50:48.342Z,30.18
2022-08-25T12:55:55.834Z,30.17
2022-08-25T13:01:35.370Z,29.98
2022-08-25T13:06:54.802Z,30.11
2022-08-25T13:12:11.089Z,30.12
2022-08-25T13:17:26.031Z,30.02
2022-08-25T13:22:27.830Z,30.01
2022-08-25T13:27:33.965Z,29.76
2022-08-25T13:32:36.808Z,29.97
2022-08-25T13:37:38.319Z,29.97
2022-08-25T13:42:42.485Z,29.65
2022-08-25T13:47:46.673Z,29.79
2022-08-25T13:53:01.753Z,29.94
2022-08-25T13:58:05.869Z,29.96
2022-08-25T14:03:40.285Z,29.96
2022-08-25T14:09:12.722Z,29.89
2022-08-25T14:14:32.279Z,29.93
2022-08-25T14:19:44.638Z,30.00
2022-08-25T14:24:51.502Z,29.80
2022-08-25T14:29:53.131Z,29.79
2022-08-25T14:34:54.706Z,29.80
2022-08-25T14:39:56.228Z,29.68
2022-08-25T14:44:58.161Z,29.64
2022-08-25T14:50:01.872Z,29.68
2022-08-25T14:55:04.111Z,29.69
2022-08-25T15:00:06.874Z,29.58
2022-08-25T15:05:11.314Z,29.61
2022-08-25T15:10:13.676Z,29.73
2022-08-25T15:15:15.482Z,29.73
2022-08-25T15:20:17.422Z,29.63
2022-08-25T15:25:18.941Z,29.59
2022-08-25T15:30:20.635Z,29.39
2022-08-25T15:35:22.294Z,29.35
2022-08-25T15:40:30.749Z,29.35
2022-08-25T15:45:33.149Z,29.08
2022-08-25T15:50:34.682Z,29.04
2022-08-25T15:55:39.187Z,29.17
2022-08-25T16:00:41.168Z,28.85
2022-08-25T16:05:47.899Z,28.90
2022-08-25T16:10:50.151Z,29.03
2022-08-25T16:15:54.363Z,28.80
2022-08-25T16:20:56.080Z,28.79
2022-08-25T16:25:57.696Z,28.64
2022-08-25T16:30:59.929Z,28.65
2022-08-25T16:36:10.714Z,28.51
2022-08-25T16:41:15.696Z,28.40
2022-08-25T16:46:19.197Z,28.37
2022-08-25T16:51:22.663Z,28.57
2022-08-25T16:56:33.829Z,28.47
2022-08-25T17:01:35.949Z,28.39
2022-08-25T17:06:42.136Z,28.19
2022-08-25T17:11:54.227Z,28.15
2022-08-25T17:16:55.998Z,27.94
2022-08-25T17:21:57.484Z,28.27
2022-08-25T17:26:59.757Z,28.23
2022-08-25T17:32:03.987Z,28.11
2022-08-25T17:37:05.434Z,28.07
2022-08-25T17:42:06.941Z,27.80
2022-08-25T17:47:08.636Z,27.68
2022-08-25T17:52:11.122Z,27.50
2022-08-25T17:57:12.692Z,27.32
2022-08-25T18:02:14.463Z,27.20
2022-08-25T18:07:16.407Z,27.05
2022-08-25T18:12:18.702Z,26.87
2022-08-25T18:17:22.930Z,26.71
2022-08-25T18:22:24.594Z,26.05
2022-08-25T18:27:27.096Z,25.26
2022-08-25T18:32:29.283Z,25.08
2022-08-25T18:37:30.775Z,25.13
2022-08-25T18:42:32.399Z,25.12
2022-08-25T18:47:34.221Z,25.03
2022-08-25T18:52:35.740Z,24.90
2022-08-25T18:57:41.572Z,24.68
2022-08-25T19:02:47.018Z,24.67
2022-08-25T19:07:51.755Z,24.56
2022-08-25T19:12:54.922Z,24.54
2022-08-25T19:17:58.675Z,24.52
2022-08-25T19:23:01.266Z,24.30
2022-08-25T19:28:05.927Z,24.19
2022-08-25T19:33:11.607Z,23.88
2022-08-25T19:38:33.370Z,23.94
2022-08-25T19:43:36.793Z,23.99
2022-08-25T19:48:40.585Z,23.95
2022-08-25T19:53:42.926Z,23.69
2022-08-25T19:58:44.393Z,23.66
2022-08-25T20:03:46.089Z,23.60
2022-08-25T20:08:47.586Z,23.48
2022-08-25T20:14:03.938Z,23.33
2022-08-25T20:19:06.316Z,23.31
2022-08-25T20:24:10.758Z,23.18
2022-08-25T20:29:12.371Z,23.14
2022-08-25T20:34:15.033Z,23.08
2022-08-25T20:39:16.605Z,22.97
2022-08-25T20:44:18.922Z,22.80
2022-08-25T20:49:24.743Z,22.92
2022-08-25T20:54:27.394Z,22.75
2022-08-25T20:59:28.987Z,22.63
2022-08-25T21:04:30.623Z,22.51
2022-08-25T21:09:33.002Z,22.38
2022-08-25T21:14:37.942Z,22.39
2022-08-25T21:19:40.027Z,22.36
2022-08-25T21:24:43.289Z,22.32
2022-08-25T21:29:55.054Z,22.33
2022-08-25T21:34:56.902Z,22.22
2022-08-25T21:40:00.252Z,22.02
2022-08-25T21:45:01.782Z,22.12
2022-08-25T21:50:04.431Z,21.78
2022-08-25T21:55:06.386Z,21.78
2022-08-25T22:00:12.118Z,21.78
2022-08-25T22:05:13.806Z,21.72
2022-08-25T22:10:18.121Z,21.64
2022-08-25T22:15:19.778Z,21.56
2022-08-25T22:20:21.298Z,21.58
2022-08-25T22:25:22.809Z,21.66
2022-08-25T22:30:29.463Z,21.43
2022-08-25T22:35:32.993Z,21.20
2022-08-25T22:40:36.873Z,21.25
2022-08-25T22:45:38.623Z,21.41
2022-08-25T22:50:40.160Z,21.13
2022-08-25T22:55:43.818Z,21.13
2022-08-25T23:00:45.289Z,21.01
2022-08-25T23:05:48.169Z,21.00
2022-08-25T23:10:52.157Z,20.78
2022-08-25T23:15:53.814Z,20.73
2022-08-25T23:20:55.625Z,20.68
2022-08-25T23:25:57.905Z,20.46
2022-08-25T23:30:59.651Z,20.53
2022-08-25T23:36:04.791Z,20.48
2022-08-25T23:41:06.926Z,20.35
2022-08-25T23:46:08.535Z,20.21
2022-08-25T23:51:10.854Z,20.32
2022-08-25T23:56:12.351Z,20.26
